Terminal Aerodrome Forecast
Issued by NWS

Home | Current Version | Previous Version | Text Only | Print | Product List | Glossary On
Versions: 1 2 3 4 5 6 7 8 9 10 11 12 13
000
FTUS43 KDVN 242011 AAA
TAFBRL
TAF AMD
KBRL 242011Z 2420/2518 18012KT P6SM VCSH BKN030 OVC060
     FM242200 18011KT 4SM TSRA BR BKN012 OVC030CB
     FM250300 18007KT 2SM -SHRA BR SCT007 BKN009 OVC012
     FM251100 22014G22KT 5SM BR VCSH BKN020=

USA.gov is the U.S. government's official web portal to all federal, state and local government web resources and services.